sensor_id;sensor_type;location;lat;lon;timestamp;pressure;altitude;pressure_sealevel;temperature
76895;BMP280;65855;42.030;13.078;2023-11-19T00:00:34;94317.38;;;3.54
76895;BMP280;65855;42.030;13.078;2023-11-19T00:02:59;94325.59;;;3.43
76895;BMP280;65855;42.030;13.078;2023-11-19T00:05:25;94333.38;;;3.58
76895;BMP280;65855;42.030;13.078;2023-11-19T00:07:50;94331.97;;;3.51
76895;BMP280;65855;42.030;13.078;2023-11-19T00:10:16;94310.13;;;2.79
76895;BMP280;65855;42.030;13.078;2023-11-19T00:12:47;94314.84;;;3.09
76895;BMP280;65855;42.030;13.078;2023-11-19T00:15:14;94319.38;;;3.12
76895;BMP280;65855;42.030;13.078;2023-11-19T00:17:40;94314.13;;;2.80
76895;BMP280;65855;42.030;13.078;2023-11-19T00:20:10;94299.41;;;2.78
76895;BMP280;65855;42.030;13.078;2023-11-19T00:22:35;94287.00;;;2.61
76895;BMP280;65855;42.030;13.078;2023-11-19T00:25:01;94285.25;;;2.21
76895;BMP280;65855;42.030;13.078;2023-11-19T00:27:27;94278.81;;;2.42
76895;BMP280;65855;42.030;13.078;2023-11-19T00:29:52;94276.38;;;2.54
76895;BMP280;65855;42.030;13.078;2023-11-19T00:32:18;94273.13;;;2.93
76895;BMP280;65855;42.030;13.078;2023-11-19T00:34:46;94288.53;;;3.58
76895;BMP280;65855;42.030;13.078;2023-11-19T00:37:13;94286.69;;;3.42
76895;BMP280;65855;42.030;13.078;2023-11-19T00:39:39;94291.81;;;3.47
76895;BMP280;65855;42.030;13.078;2023-11-19T00:42:04;94287.00;;;3.80
76895;BMP280;65855;42.030;13.078;2023-11-19T00:44:30;94284.91;;;3.88
76895;BMP280;65855;42.030;13.078;2023-11-19T00:46:56;94276.91;;;2.85
76895;BMP280;65855;42.030;13.078;2023-11-19T00:49:21;94290.19;;;4.14
76895;BMP280;65855;42.030;13.078;2023-11-19T00:51:46;94304.19;;;4.42
76895;BMP280;65855;42.030;13.078;2023-11-19T00:54:12;94315.75;;;4.59
76895;BMP280;65855;42.030;13.078;2023-11-19T00:56:37;94324.72;;;4.33
76895;BMP280;65855;42.030;13.078;2023-11-19T00:59:03;94324.66;;;4.17
76895;BMP280;65855;42.030;13.078;2023-11-19T01:01:29;94330.09;;;4.03
76895;BMP280;65855;42.030;13.078;2023-11-19T01:03:55;94331.78;;;3.86
76895;BMP280;65855;42.030;13.078;2023-11-19T01:06:32;94324.06;;;3.54
76895;BMP280;65855;42.030;13.078;2023-11-19T01:08:58;94300.75;;;3.14
76895;BMP280;65855;42.030;13.078;2023-11-19T01:11:26;94291.81;;;2.73
76895;BMP280;65855;42.030;13.078;2023-11-19T01:13:52;94292.69;;;2.50
76895;BMP280;65855;42.030;13.078;2023-11-19T01:16:18;94283.81;;;2.42
76895;BMP280;65855;42.030;13.078;2023-11-19T01:18:44;94280.84;;;2.34
76895;BMP280;65855;42.030;13.078;2023-11-19T01:21:10;94279.88;;;2.06
76895;BMP280;65855;42.030;13.078;2023-11-19T01:23:35;94265.94;;;1.88
76895;BMP280;65855;42.030;13.078;2023-11-19T01:26:02;94252.28;;;1.61
76895;BMP280;65855;42.030;13.078;2023-11-19T01:28:27;94253.53;;;1.70
76895;BMP280;65855;42.030;13.078;2023-11-19T01:30:53;94241.38;;;1.62
76895;BMP280;65855;42.030;13.078;2023-11-19T01:33:18;94233.56;;;1.59
76895;BMP280;65855;42.030;13.078;2023-11-19T01:35:44;94219.03;;;1.62
76895;BMP280;65855;42.030;13.078;2023-11-19T01:38:09;94219.34;;;1.66
76895;BMP280;65855;42.030;13.078;2023-11-19T01:40:36;94218.81;;;1.46
76895;BMP280;65855;42.030;13.078;2023-11-19T01:43:02;94187.84;;;1.31
76895;BMP280;65855;42.030;13.078;2023-11-19T01:45:29;94185.06;;;1.21
76895;BMP280;65855;42.030;13.078;2023-11-19T01:48:00;94166.28;;;0.90
76895;BMP280;65855;42.030;13.078;2023-11-19T01:50:26;94153.81;;;0.96
76895;BMP280;65855;42.030;13.078;2023-11-19T01:52:52;94144.50;;;1.27
76895;BMP280;65855;42.030;13.078;2023-11-19T01:55:19;94144.63;;;1.49
76895;BMP280;65855;42.030;13.078;2023-11-19T01:57:45;94191.25;;;2.74
76895;BMP280;65855;42.030;13.078;2023-11-19T02:00:12;94198.41;;;2.71
76895;BMP280;65855;42.030;13.078;2023-11-19T02:02:39;94197.56;;;2.77
76895;BMP280;65855;42.030;13.078;2023-11-19T02:05:05;94205.78;;;3.11
76895;BMP280;65855;42.030;13.078;2023-11-19T02:07:31;94226.44;;;3.57
76895;BMP280;65855;42.030;13.078;2023-11-19T02:09:57;94231.19;;;3.69
76895;BMP280;65855;42.030;13.078;2023-11-19T02:12:25;94233.41;;;3.93
76895;BMP280;65855;42.030;13.078;2023-11-19T02:14:54;94245.13;;;3.82
76895;BMP280;65855;42.030;13.078;2023-11-19T02:17:30;94228.94;;;3.95
76895;BMP280;65855;42.030;13.078;2023-11-19T02:19:59;94231.28;;;4.13
76895;BMP280;65855;42.030;13.078;2023-11-19T02:22:25;94244.09;;;4.05
76895;BMP280;65855;42.030;13.078;2023-11-19T02:24:54;94240.16;;;3.82
76895;BMP280;65855;42.030;13.078;2023-11-19T02:27:36;94241.34;;;3.79
76895;BMP280;65855;42.030;13.078;2023-11-19T02:30:02;94244.31;;;3.54
76895;BMP280;65855;42.030;13.078;2023-11-19T02:32:31;94251.06;;;3.31
76895;BMP280;65855;42.030;13.078;2023-11-19T02:34:56;94222.66;;;2.64
76895;BMP280;65855;42.030;13.078;2023-11-19T02:37:22;94212.13;;;2.51
76895;BMP280;65855;42.030;13.078;2023-11-19T02:39:47;94197.34;;;2.27
76895;BMP280;65855;42.030;13.078;2023-11-19T02:42:12;94210.44;;;2.05
76895;BMP280;65855;42.030;13.078;2023-11-19T02:44:43;94186.69;;;1.80
76895;BMP280;65855;42.030;13.078;2023-11-19T02:47:09;94179.94;;;1.87
76895;BMP280;65855;42.030;13.078;2023-11-19T02:49:34;94165.41;;;1.55
76895;BMP280;65855;42.030;13.078;2023-11-19T02:52:00;94161.47;;;1.47
76895;BMP280;65855;42.030;13.078;2023-11-19T02:54:25;94159.34;;;1.16
76895;BMP280;65855;42.030;13.078;2023-11-19T02:56:52;94139.81;;;1.37
76895;BMP280;65855;42.030;13.078;2023-11-19T02:59:21;94148.94;;;1.07
76895;BMP280;65855;42.030;13.078;2023-11-19T03:01:57;94138.59;;;1.10
76895;BMP280;65855;42.030;13.078;2023-11-19T03:04:22;94128.94;;;1.20
76895;BMP280;65855;42.030;13.078;2023-11-19T03:06:48;94124.94;;;1.19
76895;BMP280;65855;42.030;13.078;2023-11-19T03:09:15;94117.19;;;1.09
76895;BMP280;65855;42.030;13.078;2023-11-19T03:11:40;94117.44;;;1.83
76895;BMP280;65855;42.030;13.078;2023-11-19T03:14:06;94139.59;;;2.36
76895;BMP280;65855;42.030;13.078;2023-11-19T03:16:32;94152.69;;;2.32
76895;BMP280;65855;42.030;13.078;2023-11-19T03:18:58;94179.03;;;2.73
76895;BMP280;65855;42.030;13.078;2023-11-19T03:21:31;94190.63;;;3.35
76895;BMP280;65855;42.030;13.078;2023-11-19T03:23:57;94205.00;;;3.33
76895;BMP280;65855;42.030;13.078;2023-11-19T03:26:26;94168.28;;;2.39
76895;BMP280;65855;42.030;13.078;2023-11-19T03:28:52;94164.00;;;2.79
76895;BMP280;65855;42.030;13.078;2023-11-19T03:31:18;94184.88;;;3.12
76895;BMP280;65855;42.030;13.078;2023-11-19T03:33:48;94208.09;;;4.01
76895;BMP280;65855;42.030;13.078;2023-11-19T03:36:14;94221.84;;;4.15
76895;BMP280;65855;42.030;13.078;2023-11-19T03:38:39;94224.50;;;3.97
76895;BMP280;65855;42.030;13.078;2023-11-19T03:41:14;94229.97;;;3.72
76895;BMP280;65855;42.030;13.078;2023-11-19T03:43:40;94231.59;;;3.66
76895;BMP280;65855;42.030;13.078;2023-11-19T03:46:26;94223.75;;;3.24
76895;BMP280;65855;42.030;13.078;2023-11-19T03:48:52;94218.13;;;2.95
76895;BMP280;65855;42.030;13.078;2023-11-19T03:51:18;94211.72;;;2.76
76895;BMP280;65855;42.030;13.078;2023-11-19T03:53:44;94202.28;;;2.44
76895;BMP280;65855;42.030;13.078;2023-11-19T03:56:11;94204.31;;;2.07
76895;BMP280;65855;42.030;13.078;2023-11-19T03:58:37;94182.72;;;1.61
76895;BMP280;65855;42.030;13.078;2023-11-19T04:01:10;94167.84;;;1.43
76895;BMP280;65855;42.030;13.078;2023-11-19T04:03:36;94143.69;;;1.33
76895;BMP280;65855;42.030;13.078;2023-11-19T04:06:02;94126.19;;;1.10
76895;BMP280;65855;42.030;13.078;2023-11-19T04:08:27;94105.75;;;1.08
76895;BMP280;65855;42.030;13.078;2023-11-19T04:10:52;94102.63;;;1.48
76895;BMP280;65855;42.030;13.078;2023-11-19T04:13:18;94133.94;;;1.78
76895;BMP280;65855;42.030;13.078;2023-11-19T04:15:45;94115.75;;;1.37
76895;BMP280;65855;42.030;13.078;2023-11-19T04:18:10;94124.38;;;1.92
76895;BMP280;65855;42.030;13.078;2023-11-19T04:20:35;94148.94;;;2.74
76895;BMP280;65855;42.030;13.078;2023-11-19T04:23:01;94161.47;;;2.05
76895;BMP280;65855;42.030;13.078;2023-11-19T04:25:27;94155.56;;;1.48
76895;BMP280;65855;42.030;13.078;2023-11-19T04:27:52;94139.88;;;1.48
76895;BMP280;65855;42.030;13.078;2023-11-19T04:30:18;94133.28;;;1.42
76895;BMP280;65855;42.030;13.078;2023-11-19T04:32:44;94124.19;;;1.47
76895;BMP280;65855;42.030;13.078;2023-11-19T04:35:09;94126.59;;;1.54
76895;BMP280;65855;42.030;13.078;2023-11-19T04:37:35;94110.31;;;1.29
76895;BMP280;65855;42.030;13.078;2023-11-19T04:40:01;94110.19;;;1.06
76895;BMP280;65855;42.030;13.078;2023-11-19T04:42:27;94102.03;;;1.17
76895;BMP280;65855;42.030;13.078;2023-11-19T04:44:52;94095.28;;;1.24
76895;BMP280;65855;42.030;13.078;2023-11-19T04:47:18;94103.81;;;1.28
76895;BMP280;65855;42.030;13.078;2023-11-19T04:49:43;94100.09;;;1.37
76895;BMP280;65855;42.030;13.078;2023-11-19T04:52:09;94103.94;;;1.33
76895;BMP280;65855;42.030;13.078;2023-11-19T04:54:34;94096.72;;;1.31
76895;BMP280;65855;42.030;13.078;2023-11-19T04:56:59;94086.88;;;1.07
76895;BMP280;65855;42.030;13.078;2023-11-19T04:59:25;94079.78;;;0.75
76895;BMP280;65855;42.030;13.078;2023-11-19T05:01:50;94056.16;;;0.73
76895;BMP280;65855;42.030;13.078;2023-11-19T05:04:16;94054.97;;;0.75
76895;BMP280;65855;42.030;13.078;2023-11-19T05:06:41;94052.69;;;0.92
76895;BMP280;65855;42.030;13.078;2023-11-19T05:09:07;94049.16;;;1.45
76895;BMP280;65855;42.030;13.078;2023-11-19T05:11:36;94063.63;;;1.19
76895;BMP280;65855;42.030;13.078;2023-11-19T05:14:04;94053.38;;;0.81
76895;BMP280;65855;42.030;13.078;2023-11-19T05:16:30;94037.19;;;0.78
76895;BMP280;65855;42.030;13.078;2023-11-19T05:18:56;94027.94;;;1.32
76895;BMP280;65855;42.030;13.078;2023-11-19T05:21:21;94040.78;;;1.29
76895;BMP280;65855;42.030;13.078;2023-11-19T05:23:47;94066.59;;;1.57
76895;BMP280;65855;42.030;13.078;2023-11-19T05:26:19;94072.47;;;1.44
76895;BMP280;65855;42.030;13.078;2023-11-19T05:28:45;94083.94;;;1.28
76895;BMP280;65855;42.030;13.078;2023-11-19T05:31:11;94072.38;;;1.22
76895;BMP280;65855;42.030;13.078;2023-11-19T05:33:36;94071.44;;;1.05
76895;BMP280;65855;42.030;13.078;2023-11-19T05:36:02;94050.53;;;0.95
76895;BMP280;65855;42.030;13.078;2023-11-19T05:38:29;94062.13;;;0.66
76895;BMP280;65855;42.030;13.078;2023-11-19T05:40:55;94053.81;;;0.78
76895;BMP280;65855;42.030;13.078;2023-11-19T05:43:20;94060.13;;;0.74
76895;BMP280;65855;42.030;13.078;2023-11-19T05:45:46;94076.53;;;0.75
76895;BMP280;65855;42.030;13.078;2023-11-19T05:48:12;94080.66;;;0.63
76895;BMP280;65855;42.030;13.078;2023-11-19T05:50:38;94063.16;;;0.17
76895;BMP280;65855;42.030;13.078;2023-11-19T05:53:04;94055.50;;;0.00
76895;BMP280;65855;42.030;13.078;2023-11-19T05:55:33;94042.91;;;0.02
76895;BMP280;65855;42.030;13.078;2023-11-19T05:57:59;94039.00;;;0.30
76895;BMP280;65855;42.030;13.078;2023-11-19T06:00:25;94050.31;;;0.26
76895;BMP280;65855;42.030;13.078;2023-11-19T06:02:52;94051.66;;;-0.26
76895;BMP280;65855;42.030;13.078;2023-11-19T06:05:17;94041.75;;;-0.26
76895;BMP280;65855;42.030;13.078;2023-11-19T06:07:43;94031.41;;;-0.17
76895;BMP280;65855;42.030;13.078;2023-11-19T06:10:09;94028.69;;;0.15
76895;BMP280;65855;42.030;13.078;2023-11-19T06:12:36;94025.88;;;0.47
76895;BMP280;65855;42.030;13.078;2023-11-19T06:15:07;94033.19;;;0.42
76895;BMP280;65855;42.030;13.078;2023-11-19T06:17:33;94033.34;;;0.47
76895;BMP280;65855;42.030;13.078;2023-11-19T06:19:59;94026.91;;;0.57
76895;BMP280;65855;42.030;13.078;2023-11-19T06:22:24;94030.22;;;0.69
76895;BMP280;65855;42.030;13.078;2023-11-19T06:24:50;94036.41;;;0.95
76895;BMP280;65855;42.030;13.078;2023-11-19T06:27:15;94040.31;;;1.20
76895;BMP280;65855;42.030;13.078;2023-11-19T06:29:40;94057.66;;;1.38
76895;BMP280;65855;42.030;13.078;2023-11-19T06:32:06;94069.44;;;1.43
76895;BMP280;65855;42.030;13.078;2023-11-19T06:34:33;94077.28;;;1.57
76895;BMP280;65855;42.030;13.078;2023-11-19T06:36:59;94089.84;;;1.73
76895;BMP280;65855;42.030;13.078;2023-11-19T06:39:24;94108.25;;;1.84
76895;BMP280;65855;42.030;13.078;2023-11-19T06:41:50;94118.69;;;2.03
76895;BMP280;65855;42.030;13.078;2023-11-19T06:44:16;94142.16;;;2.07
76895;BMP280;65855;42.030;13.078;2023-11-19T06:46:41;94148.00;;;2.13
76895;BMP280;65855;42.030;13.078;2023-11-19T06:49:06;94170.25;;;2.48
76895;BMP280;65855;42.030;13.078;2023-11-19T06:51:33;94172.69;;;2.37
76895;BMP280;65855;42.030;13.078;2023-11-19T06:53:59;94174.47;;;2.59
76895;BMP280;65855;42.030;13.078;2023-11-19T06:56:25;94179.16;;;2.78
76895;BMP280;65855;42.030;13.078;2023-11-19T06:58:51;94188.69;;;3.03
76895;BMP280;65855;42.030;13.078;2023-11-19T07:01:16;94191.44;;;3.40
76895;BMP280;65855;42.030;13.078;2023-11-19T07:03:44;94196.00;;;3.93
76895;BMP280;65855;42.030;13.078;2023-11-19T07:06:10;94198.75;;;4.68
76895;BMP280;65855;42.030;13.078;2023-11-19T07:08:35;94207.88;;;4.90
76895;BMP280;65855;42.030;13.078;2023-11-19T07:11:02;94209.94;;;5.30
76895;BMP280;65855;42.030;13.078;2023-11-19T07:13:28;94227.06;;;5.59
76895;BMP280;65855;42.030;13.078;2023-11-19T07:15:56;94212.25;;;6.16
76895;BMP280;65855;42.030;13.078;2023-11-19T07:18:21;94208.16;;;6.57
76895;BMP280;65855;42.030;13.078;2023-11-19T07:20:48;94206.69;;;6.61
76895;BMP280;65855;42.030;13.078;2023-11-19T07:23:13;94215.97;;;6.91
76895;BMP280;65855;42.030;13.078;2023-11-19T07:25:42;94213.53;;;7.01
76895;BMP280;65855;42.030;13.078;2023-11-19T07:28:08;94213.59;;;7.11
76895;BMP280;65855;42.030;13.078;2023-11-19T07:30:35;94207.50;;;7.38
76895;BMP280;65855;42.030;13.078;2023-11-19T07:33:00;94212.63;;;7.52
76895;BMP280;65855;42.030;13.078;2023-11-19T07:35:26;94219.56;;;7.45
76895;BMP280;65855;42.030;13.078;2023-11-19T07:37:51;94224.84;;;7.44
76895;BMP280;65855;42.030;13.078;2023-11-19T07:40:16;94222.03;;;7.81
76895;BMP280;65855;42.030;13.078;2023-11-19T07:42:42;94223.16;;;8.10
76895;BMP280;65855;42.030;13.078;2023-11-19T07:45:08;94225.78;;;8.39
76895;BMP280;65855;42.030;13.078;2023-11-19T07:47:33;94225.34;;;8.81
76895;BMP280;65855;42.030;13.078;2023-11-19T07:49:59;94220.81;;;8.83
76895;BMP280;65855;42.030;13.078;2023-11-19T07:52:25;94217.28;;;8.64
76895;BMP280;65855;42.030;13.078;2023-11-19T07:54:50;94228.09;;;7.85
76895;BMP280;65855;42.030;13.078;2023-11-19T07:57:15;94233.81;;;8.41
76895;BMP280;65855;42.030;13.078;2023-11-19T07:59:41;94220.44;;;8.16
76895;BMP280;65855;42.030;13.078;2023-11-19T08:02:06;94220.31;;;8.86
76895;BMP280;65855;42.030;13.078;2023-11-19T08:04:31;94229.13;;;10.24
76895;BMP280;65855;42.030;13.078;2023-11-19T08:06:57;94217.75;;;10.74
76895;BMP280;65855;42.030;13.078;2023-11-19T08:09:22;94215.22;;;11.45
76895;BMP280;65855;42.030;13.078;2023-11-19T08:11:48;94224.00;;;11.98
76895;BMP280;65855;42.030;13.078;2023-11-19T08:14:13;94220.06;;;12.10
76895;BMP280;65855;42.030;13.078;2023-11-19T08:16:39;94230.19;;;12.88
76895;BMP280;65855;42.030;13.078;2023-11-19T08:19:05;94221.56;;;12.89
76895;BMP280;65855;42.030;13.078;2023-11-19T08:21:31;94220.31;;;13.04
76895;BMP280;65855;42.030;13.078;2023-11-19T08:23:56;94215.94;;;12.55
76895;BMP280;65855;42.030;13.078;2023-11-19T08:26:22;94222.56;;;12.51
76895;BMP280;65855;42.030;13.078;2023-11-19T08:28:47;94224.75;;;12.58
76895;BMP280;65855;42.030;13.078;2023-11-19T08:31:12;94222.44;;;13.29
76895;BMP280;65855;42.030;13.078;2023-11-19T08:33:38;94226.47;;;13.30
76895;BMP280;65855;42.030;13.078;2023-11-19T08:36:04;94221.38;;;13.61
76895;BMP280;65855;42.030;13.078;2023-11-19T08:38:30;94222.72;;;14.51
76895;BMP280;65855;42.030;13.078;2023-11-19T08:40:55;94221.03;;;14.34
76895;BMP280;65855;42.030;13.078;2023-11-19T08:43:28;94226.13;;;14.20
76895;BMP280;65855;42.030;13.078;2023-11-19T08:45:53;94221.91;;;14.77
76895;BMP280;65855;42.030;13.078;2023-11-19T08:48:18;94213.72;;;15.15
76895;BMP280;65855;42.030;13.078;2023-11-19T08:50:44;94211.69;;;15.55
76895;BMP280;65855;42.030;13.078;2023-11-19T08:53:09;94211.63;;;16.78
76895;BMP280;65855;42.030;13.078;2023-11-19T08:55:34;94221.44;;;14.14
76895;BMP280;65855;42.030;13.078;2023-11-19T08:58:00;94213.34;;;15.30
76895;BMP280;65855;42.030;13.078;2023-11-19T09:00:26;94203.28;;;15.46
76895;BMP280;65855;42.030;13.078;2023-11-19T09:02:51;94197.81;;;16.37
76895;BMP280;65855;42.030;13.078;2023-11-19T09:05:17;94195.00;;;16.47
76895;BMP280;65855;42.030;13.078;2023-11-19T09:07:42;94193.47;;;17.46
76895;BMP280;65855;42.030;13.078;2023-11-19T09:10:08;94193.59;;;17.58
76895;BMP280;65855;42.030;13.078;2023-11-19T09:12:34;94195.94;;;17.71
76895;BMP280;65855;42.030;13.078;2023-11-19T09:15:00;94195.38;;;18.39
76895;BMP280;65855;42.030;13.078;2023-11-19T09:17:25;94184.13;;;19.32
76895;BMP280;65855;42.030;13.078;2023-11-19T09:19:51;94189.75;;;17.89
76895;BMP280;65855;42.030;13.078;2023-11-19T09:22:16;94191.19;;;17.53
76895;BMP280;65855;42.030;13.078;2023-11-19T09:24:42;94194.78;;;18.82
76895;BMP280;65855;42.030;13.078;2023-11-19T09:27:09;94190.50;;;19.26
76895;BMP280;65855;42.030;13.078;2023-11-19T09:29:34;94196.81;;;18.97
76895;BMP280;65855;42.030;13.078;2023-11-19T09:32:00;94197.81;;;20.74
76895;BMP280;65855;42.030;13.078;2023-11-19T09:34:26;94215.31;;;20.25
76895;BMP280;65855;42.030;13.078;2023-11-19T09:36:51;94206.03;;;20.68
76895;BMP280;65855;42.030;13.078;2023-11-19T09:39:17;94209.34;;;19.98
76895;BMP280;65855;42.030;13.078;2023-11-19T09:41:44;94204.25;;;20.33
76895;BMP280;65855;42.030;13.078;2023-11-19T09:44:10;94196.72;;;20.87
76895;BMP280;65855;42.030;13.078;2023-11-19T09:46:38;94194.72;;;21.07
76895;BMP280;65855;42.030;13.078;2023-11-19T09:49:05;94199.88;;;20.10
76895;BMP280;65855;42.030;13.078;2023-11-19T09:51:34;94200.00;;;20.87
76895;BMP280;65855;42.030;13.078;2023-11-19T09:54:00;94202.75;;;19.65
76895;BMP280;65855;42.030;13.078;2023-11-19T09:56:27;94193.41;;;20.86
76895;BMP280;65855;42.030;13.078;2023-11-19T09:58:54;94189.69;;;20.84
76895;BMP280;65855;42.030;13.078;2023-11-19T10:01:20;94188.47;;;21.47
76895;BMP280;65855;42.030;13.078;2023-11-19T10:03:47;94200.44;;;22.46
76895;BMP280;65855;42.030;13.078;2023-11-19T10:06:14;94181.44;;;22.50
76895;BMP280;65855;42.030;13.078;2023-11-19T10:08:41;94183.72;;;21.76
76895;BMP280;65855;42.030;13.078;2023-11-19T10:11:07;94181.50;;;21.32
76895;BMP280;65855;42.030;13.078;2023-11-19T10:13:36;94187.72;;;21.19
76895;BMP280;65855;42.030;13.078;2023-11-19T10:16:09;94177.47;;;22.38
76895;BMP280;65855;42.030;13.078;2023-11-19T10:18:36;94178.31;;;22.41
76895;BMP280;65855;42.030;13.078;2023-11-19T10:21:04;94177.66;;;22.63
76895;BMP280;65855;42.030;13.078;2023-11-19T10:23:30;94168.38;;;23.67
76895;BMP280;65855;42.030;13.078;2023-11-19T10:26:03;94171.25;;;24.83
76895;BMP280;65855;42.030;13.078;2023-11-19T10:28:38;94164.47;;;23.36
76895;BMP280;65855;42.030;13.078;2023-11-19T10:31:05;94178.81;;;22.99
76895;BMP280;65855;42.030;13.078;2023-11-19T10:33:30;94167.53;;;23.22
76895;BMP280;65855;42.030;13.078;2023-11-19T10:35:57;94168.81;;;24.42
76895;BMP280;65855;42.030;13.078;2023-11-19T10:38:23;94156.00;;;26.07
76895;BMP280;65855;42.030;13.078;2023-11-19T10:40:50;94150.81;;;24.71
76895;BMP280;65855;42.030;13.078;2023-11-19T10:43:19;94152.44;;;26.25
76895;BMP280;65855;42.030;13.078;2023-11-19T10:45:44;94146.53;;;25.46
76895;BMP280;65855;42.030;13.078;2023-11-19T10:48:10;94140.13;;;24.72
76895;BMP280;65855;42.030;13.078;2023-11-19T10:50:39;94148.06;;;25.15
76895;BMP280;65855;42.030;13.078;2023-11-19T10:53:06;94142.38;;;24.74
76895;BMP280;65855;42.030;13.078;2023-11-19T10:55:33;94149.16;;;25.89
76895;BMP280;65855;42.030;13.078;2023-11-19T10:58:07;94147.47;;;22.08
76895;BMP280;65855;42.030;13.078;2023-11-19T11:00:48;94133.50;;;22.24
76895;BMP280;65855;42.030;13.078;2023-11-19T11:05:41;94135.53;;;22.00
76895;BMP280;65855;42.030;13.078;2023-11-19T11:08:07;94133.44;;;23.29
76895;BMP280;65855;42.030;13.078;2023-11-19T11:10:39;94124.97;;;24.96
76895;BMP280;65855;42.030;13.078;2023-11-19T11:13:07;94123.41;;;24.09
76895;BMP280;65855;42.030;13.078;2023-11-19T11:15:33;94124.28;;;23.94
76895;BMP280;65855;42.030;13.078;2023-11-19T11:18:01;94134.22;;;22.06
76895;BMP280;65855;42.030;13.078;2023-11-19T11:20:30;94127.56;;;21.74
76895;BMP280;65855;42.030;13.078;2023-11-19T11:37:06;94106.00;;;24.82
76895;BMP280;65855;42.030;13.078;2023-11-19T11:39:36;94097.84;;;25.09
76895;BMP280;65855;42.030;13.078;2023-11-19T11:45:02;94104.50;;;25.46
76895;BMP280;65855;42.030;13.078;2023-11-19T11:50:18;94094.78;;;26.21
76895;BMP280;65855;42.030;13.078;2023-11-19T11:57:50;94095.41;;;24.07
76895;BMP280;65855;42.030;13.078;2023-11-19T12:00:31;94102.41;;;23.85
76895;BMP280;65855;42.030;13.078;2023-11-19T12:02:59;94093.41;;;24.23
76895;BMP280;65855;42.030;13.078;2023-11-19T12:05:25;94092.94;;;24.43
76895;BMP280;65855;42.030;13.078;2023-11-19T12:07:55;94085.84;;;22.26
76895;BMP280;65855;42.030;13.078;2023-11-19T12:10:21;94103.19;;;18.73
76895;BMP280;65855;42.030;13.078;2023-11-19T12:12:47;94099.00;;;20.76
76895;BMP280;65855;42.030;13.078;2023-11-19T12:15:12;94097.19;;;19.32
76895;BMP280;65855;42.030;13.078;2023-11-19T12:17:58;94088.63;;;19.84
76895;BMP280;65855;42.030;13.078;2023-11-19T12:20:24;94092.44;;;20.91
76895;BMP280;65855;42.030;13.078;2023-11-19T12:22:50;94092.59;;;22.16
76895;BMP280;65855;42.030;13.078;2023-11-19T12:25:17;94093.19;;;21.94
76895;BMP280;65855;42.030;13.078;2023-11-19T12:27:46;94091.75;;;22.12
76895;BMP280;65855;42.030;13.078;2023-11-19T12:30:12;94081.22;;;20.83
76895;BMP280;65855;42.030;13.078;2023-11-19T12:32:42;94098.03;;;17.19
76895;BMP280;65855;42.030;13.078;2023-11-19T12:35:09;94088.66;;;16.19
76895;BMP280;65855;42.030;13.078;2023-11-19T12:37:50;94090.44;;;16.02
76895;BMP280;65855;42.030;13.078;2023-11-19T12:42:45;94075.88;;;17.48
76895;BMP280;65855;42.030;13.078;2023-11-19T12:45:10;94078.72;;;17.18
76895;BMP280;65855;42.030;13.078;2023-11-19T12:47:36;94078.34;;;17.28
76895;BMP280;65855;42.030;13.078;2023-11-19T12:50:02;94075.91;;;17.39
76895;BMP280;65855;42.030;13.078;2023-11-19T12:52:29;94069.91;;;16.82
76895;BMP280;65855;42.030;13.078;2023-11-19T12:54:55;94066.97;;;16.22
76895;BMP280;65855;42.030;13.078;2023-11-19T12:57:20;94073.16;;;15.74
76895;BMP280;65855;42.030;13.078;2023-11-19T12:59:55;94070.53;;;15.96
76895;BMP280;65855;42.030;13.078;2023-11-19T13:02:50;94063.97;;;16.36
76895;BMP280;65855;42.030;13.078;2023-11-19T13:05:32;94059.63;;;16.54
76895;BMP280;65855;42.030;13.078;2023-11-19T13:08:08;94057.59;;;15.67
76895;BMP280;65855;42.030;13.078;2023-11-19T13:10:50;94055.38;;;14.68
76895;BMP280;65855;42.030;13.078;2023-11-19T13:13:16;94051.28;;;15.10
76895;BMP280;65855;42.030;13.078;2023-11-19T13:15:41;94043.31;;;16.13
76895;BMP280;65855;42.030;13.078;2023-11-19T13:18:08;94033.16;;;16.46
76895;BMP280;65855;42.030;13.078;2023-11-19T13:20:33;94037.16;;;16.39
76895;BMP280;65855;42.030;13.078;2023-11-19T13:23:01;94033.16;;;16.46
76895;BMP280;65855;42.030;13.078;2023-11-19T13:25:27;94035.19;;;15.78
76895;BMP280;65855;42.030;13.078;2023-11-19T13:27:53;94032.72;;;15.39
76895;BMP280;65855;42.030;13.078;2023-11-19T13:30:19;94044.28;;;14.64
76895;BMP280;65855;42.030;13.078;2023-11-19T13:32:45;94032.19;;;14.40
76895;BMP280;65855;42.030;13.078;2023-11-19T13:35:12;94038.53;;;14.50
76895;BMP280;65855;42.030;13.078;2023-11-19T13:37:38;94048.91;;;13.71
76895;BMP280;65855;42.030;13.078;2023-11-19T13:40:04;94041.44;;;14.65
76895;BMP280;65855;42.030;13.078;2023-11-19T13:42:30;94037.84;;;14.37
76895;BMP280;65855;42.030;13.078;2023-11-19T13:44:55;94043.94;;;15.47
76895;BMP280;65855;42.030;13.078;2023-11-19T13:47:21;94039.88;;;19.45
76895;BMP280;65855;42.030;13.078;2023-11-19T13:49:47;94018.53;;;20.66
76895;BMP280;65855;42.030;13.078;2023-11-19T13:52:12;94025.69;;;19.12
76895;BMP280;65855;42.030;13.078;2023-11-19T13:54:38;94036.44;;;18.42
76895;BMP280;65855;42.030;13.078;2023-11-19T13:57:03;94028.00;;;18.94
76895;BMP280;65855;42.030;13.078;2023-11-19T13:59:30;94023.28;;;18.52
76895;BMP280;65855;42.030;13.078;2023-11-19T14:01:56;94022.97;;;17.93
76895;BMP280;65855;42.030;13.078;2023-11-19T14:04:21;94032.06;;;17.54
76895;BMP280;65855;42.030;13.078;2023-11-19T14:06:47;94035.13;;;17.11
76895;BMP280;65855;42.030;13.078;2023-11-19T14:09:12;94037.72;;;16.86
76895;BMP280;65855;42.030;13.078;2023-11-19T14:11:38;94031.91;;;16.69
76895;BMP280;65855;42.030;13.078;2023-11-19T14:14:03;94040.78;;;16.46
76895;BMP280;65855;42.030;13.078;2023-11-19T14:16:29;94032.53;;;16.33
76895;BMP280;65855;42.030;13.078;2023-11-19T14:18:54;94029.41;;;16.19
76895;BMP280;65855;42.030;13.078;2023-11-19T14:21:20;94031.03;;;16.07
76895;BMP280;65855;42.030;13.078;2023-11-19T14:23:45;94046.00;;;16.25
76895;BMP280;65855;42.030;13.078;2023-11-19T14:26:11;94046.13;;;15.32
76895;BMP280;65855;42.030;13.078;2023-11-19T14:28:37;94044.81;;;15.42
76895;BMP280;65855;42.030;13.078;2023-11-19T14:31:03;94040.47;;;15.35